createdAt,value
2022-08-07T00:01:43.127Z,28.20
2022-08-07T00:03:52.158Z,37.15
2022-08-07T00:06:32.916Z,56.30
2022-08-07T00:09:16.300Z,52.28
2022-08-07T00:11:47.928Z,38.85
2022-08-07T00:14:22.087Z,42.28
2022-08-07T00:16:52.348Z,36.13
2022-08-07T00:19:21.397Z,34.47
2022-08-07T00:21:56.288Z,34.40
2022-08-07T00:24:24.172Z,35.20
2022-08-07T00:27:06.337Z,36.53
2022-08-07T00:29:34.419Z,38.00
2022-08-07T00:32:05.915Z,35.85
2022-08-07T00:34:35.617Z,34.45
2022-08-07T00:37:02.867Z,36.05
2022-08-07T00:39:32.235Z,37.05
2022-08-07T00:42:01.727Z,37.45
2022-08-07T00:44:33.054Z,35.40
2022-08-07T00:47:00.933Z,34.20
2022-08-07T00:50:20.774Z,32.47
2022-08-07T00:52:14.940Z,32.45
2022-08-07T00:54:46.898Z,31.55
2022-08-07T00:57:22.237Z,29.95
2022-08-07T00:59:49.180Z,29.88
2022-08-07T01:02:28.715Z,26.02
2022-08-07T01:04:58.179Z,27.37
2022-08-07T01:07:27.620Z,25.88
2022-08-07T01:10:06.144Z,26.13
2022-08-07T01:12:38.928Z,24.63
2022-08-07T01:15:06.618Z,25.73
2022-08-07T01:17:38.420Z,25.98
2022-08-07T01:20:16.749Z,24.92
2022-08-07T01:22:46.699Z,24.27
2022-08-07T01:25:53.806Z,24.83
2022-08-07T01:28:00.454Z,22.48
2022-08-07T01:30:27.430Z,22.70
2022-08-07T01:32:56.020Z,21.65
2022-08-07T01:35:25.247Z,19.98
2022-08-07T01:38:12.184Z,19.77
2022-08-07T01:40:38.954Z,19.50
2022-08-07T01:43:05.775Z,19.58
2022-08-07T01:45:37.058Z,19.65
2022-08-07T01:48:19.024Z,18.70
2022-08-07T01:50:55.691Z,18.52
2022-08-07T01:54:09.642Z,18.10
2022-08-07T01:56:13.297Z,18.02
2022-08-07T01:58:45.218Z,16.95
2022-08-07T02:01:25.612Z,16.55
2022-08-07T02:04:10.133Z,16.42
2022-08-07T02:06:40.624Z,16.23
2022-08-07T02:09:09.431Z,16.20
2022-08-07T02:12:04.139Z,15.52
2022-08-07T02:14:35.925Z,15.10
2022-08-07T02:17:07.394Z,13.80
2022-08-07T02:20:04.606Z,14.93
2022-08-07T02:22:21.119Z,13.52
2022-08-07T02:24:52.965Z,13.65
2022-08-07T02:27:21.059Z,13.13
2022-08-07T02:29:54.772Z,13.23
2022-08-07T02:32:23.516Z,12.23
2022-08-07T02:34:53.691Z,13.05
2022-08-07T02:37:20.630Z,12.85
2022-08-07T02:40:02.026Z,13.68
2022-08-07T02:42:34.621Z,12.73
2022-08-07T02:45:13.572Z,14.85
2022-08-07T02:47:52.819Z,12.55
2022-08-07T02:50:19.796Z,12.82
2022-08-07T02:53:15.296Z,11.93
2022-08-07T02:56:03.451Z,11.38
2022-08-07T02:58:33.641Z,11.95
2022-08-07T03:01:00.565Z,11.18
2022-08-07T03:03:42.133Z,11.13
2022-08-07T03:06:16.431Z,11.00
2022-08-07T03:08:43.433Z,11.60
2022-08-07T03:11:10.705Z,10.63
2022-08-07T03:13:39.232Z,10.77
2022-08-07T03:16:16.459Z,10.88
2022-08-07T03:18:44.813Z,10.02
2022-08-07T03:21:14.362Z,10.77
2022-08-07T03:24:20.820Z,10.70
2022-08-07T03:26:33.156Z,9.70
2022-08-07T03:29:04.240Z,10.55
2022-08-07T03:31:42.322Z,10.40
2022-08-07T03:34:10.299Z,10.15
2022-08-07T03:36:45.599Z,9.65
2022-08-07T03:39:13.046Z,9.25
2022-08-07T03:41:42.126Z,9.27
2022-08-07T03:44:13.961Z,9.60
2022-08-07T03:47:13.483Z,9.05
2022-08-07T03:49:29.465Z,9.63
2022-08-07T03:52:01.826Z,9.73
2022-08-07T03:54:36.460Z,9.30
2022-08-07T03:58:34.142Z,8.63
2022-08-07T04:00:04.174Z,8.70
2022-08-07T04:02:30.976Z,8.35
2022-08-07T04:04:58.388Z,8.52
2022-08-07T04:07:25.627Z,8.80
2022-08-07T04:10:03.307Z,8.10
2022-08-07T04:12:30.220Z,8.10
2022-08-07T04:14:57.405Z,8.63
2022-08-07T04:18:04.640Z,8.38
2022-08-07T04:20:12.930Z,8.25
2022-08-07T04:22:40.562Z,9.02
2022-08-07T04:25:21.408Z,8.20
2022-08-07T04:27:59.361Z,9.43
2022-08-07T04:30:43.380Z,8.95
2022-08-07T04:33:13.803Z,8.50
2022-08-07T04:35:40.629Z,8.27
2022-08-07T04:38:08.809Z,7.90
2022-08-07T04:40:51.455Z,8.02
2022-08-07T04:44:09.771Z,8.25
2022-08-07T04:46:29.308Z,8.20
2022-08-07T04:49:25.689Z,7.78
2022-08-07T04:52:11.925Z,7.75
2022-08-07T04:54:50.325Z,8.20
2022-08-07T04:58:10.641Z,7.55
2022-08-07T05:00:29.994Z,7.70
2022-08-07T05:03:17.192Z,8.10
2022-08-07T05:06:19.688Z,8.35
2022-08-07T05:09:03.664Z,7.72
2022-08-07T05:11:56.778Z,7.53
2022-08-07T05:14:55.367Z,7.10
2022-08-07T05:17:52.777Z,7.60
2022-08-07T05:20:09.933Z,7.43
2022-08-07T05:22:37.593Z,7.57
2022-08-07T05:25:08.750Z,7.07
2022-08-07T05:28:02.642Z,7.47
2022-08-07T05:30:30.103Z,7.40
2022-08-07T05:32:59.710Z,7.88
2022-08-07T05:35:33.486Z,7.30
2022-08-07T05:38:09.691Z,7.75
2022-08-07T05:40:37.352Z,7.22
2022-08-07T05:45:46.811Z,6.82
2022-08-07T05:48:14.851Z,7.57
2022-08-07T05:50:42.952Z,7.38
2022-08-07T05:54:14.069Z,8.10
2022-08-07T05:56:03.834Z,7.00
2022-08-07T05:58:36.902Z,7.43
2022-08-07T06:01:06.001Z,7.68
2022-08-07T06:03:56.572Z,7.22
2022-08-07T06:06:23.775Z,8.50
2022-08-07T06:08:56.761Z,7.63
2022-08-07T06:11:25.016Z,8.25
2022-08-07T06:14:12.999Z,7.68
2022-08-07T06:16:38.511Z,8.05
2022-08-07T06:19:06.602Z,7.55
2022-08-07T06:22:14.716Z,8.00
2022-08-07T06:24:38.409Z,8.13
2022-08-07T06:27:06.715Z,7.53
2022-08-07T06:29:34.936Z,7.53
2022-08-07T06:32:05.969Z,7.30
2022-08-07T06:34:32.592Z,7.70
2022-08-07T06:36:59.940Z,7.10
2022-08-07T06:40:12.892Z,7.45
2022-08-07T06:42:35.150Z,8.15
2022-08-07T06:45:02.010Z,7.50
2022-08-07T06:47:28.797Z,7.40
2022-08-07T06:50:14.505Z,7.28
2022-08-07T06:52:52.985Z,7.30
2022-08-07T06:55:33.157Z,7.32
2022-08-07T06:58:11.020Z,6.83
2022-08-07T07:00:39.275Z,8.13
2022-08-07T07:03:13.645Z,7.43
2022-08-07T07:06:02.530Z,7.47
2022-08-07T07:08:28.680Z,7.20
2022-08-07T07:10:57.392Z,7.40
2022-08-07T07:13:58.618Z,7.85
2022-08-07T07:16:30.433Z,7.30
2022-08-07T07:18:59.841Z,7.88
2022-08-07T07:22:04.298Z,7.50
2022-08-07T07:24:19.984Z,7.35
2022-08-07T07:26:51.761Z,8.05
2022-08-07T07:29:56.781Z,8.27
2022-08-07T07:32:08.620Z,7.68
2022-08-07T07:34:36.030Z,8.10
2022-08-07T07:37:22.161Z,7.50
2022-08-07T07:39:55.226Z,7.78
2022-08-07T07:42:32.635Z,8.50
2022-08-07T07:45:03.103Z,7.68
2022-08-07T07:47:29.740Z,7.40
2022-08-07T07:50:35.392Z,7.47
2022-08-07T07:52:44.243Z,7.68
2022-08-07T07:55:13.839Z,7.88
2022-08-07T07:57:43.854Z,8.65
2022-08-07T08:00:20.986Z,9.70
2022-08-07T08:03:04.679Z,9.45
2022-08-07T08:05:50.965Z,10.07
2022-08-07T08:08:34.909Z,11.50
2022-08-07T08:11:08.048Z,13.15
2022-08-07T08:13:52.720Z,12.52
2022-08-07T08:18:36.431Z,14.13
2022-08-07T08:19:17.682Z,11.82
2022-08-07T08:22:16.300Z,11.90
2022-08-07T08:25:18.371Z,12.82
2022-08-07T08:27:56.550Z,13.07
2022-08-07T08:30:24.747Z,13.20
2022-08-07T08:32:58.609Z,12.73
2022-08-07T08:35:28.638Z,12.93
2022-08-07T08:38:03.475Z,12.73
2022-08-07T08:40:37.875Z,12.15
2022-08-07T08:43:32.073Z,13.27
2022-08-07T08:46:44.790Z,12.40
2022-08-07T08:49:32.932Z,11.65
2022-08-07T08:52:13.840Z,12.60
2022-08-07T08:55:21.299Z,12.48
2022-08-07T08:58:07.079Z,12.45
2022-08-07T09:00:48.643Z,11.35
2022-08-07T09:03:49.877Z,11.70
2022-08-07T09:06:48.437Z,10.80
2022-08-07T09:10:03.536Z,11.68
2022-08-07T09:12:41.935Z,11.05
2022-08-07T09:16:23.408Z,11.32
2022-08-07T09:18:41.498Z,11.10
2022-08-07T09:22:10.279Z,10.93
2022-08-07T09:24:59.434Z,10.40
2022-08-07T09:27:38.282Z,11.18
2022-08-07T09:30:25.569Z,11.65
2022-08-07T09:33:05.287Z,11.07
2022-08-07T09:36:02.701Z,10.60
2022-08-07T09:38:54.563Z,11.60
2022-08-07T09:42:02.921Z,10.30
2022-08-07T09:45:03.490Z,11.05
2022-08-07T09:48:06.336Z,10.80
2022-08-07T09:50:39.995Z,10.43
2022-08-07T09:53:07.916Z,9.98
2022-08-07T09:56:03.490Z,9.57
2022-08-07T09:58:41.521Z,10.20
2022-08-07T10:01:51.647Z,10.20
2022-08-07T10:07:25.989Z,10.00
2022-08-07T10:10:03.713Z,10.13
2022-08-07T10:12:45.884Z,10.55
2022-08-07T10:15:28.259Z,9.73
2022-08-07T10:18:39.279Z,9.98
2022-08-07T10:21:14.894Z,9.07
2022-08-07T10:24:08.807Z,8.82
2022-08-07T10:26:53.192Z,9.50
2022-08-07T10:29:51.578Z,9.43
2022-08-07T10:32:53.033Z,9.85
2022-08-07T10:35:56.601Z,9.55
2022-08-07T10:38:48.100Z,9.23
2022-08-07T10:41:47.413Z,8.82
2022-08-07T10:44:28.362Z,8.80
2022-08-07T10:47:55.004Z,9.70
2022-08-07T10:50:25.884Z,9.20
2022-08-07T10:53:41.944Z,9.30
2022-08-07T10:56:31.565Z,9.10
2022-08-07T10:59:30.536Z,8.55
2022-08-07T11:02:27.620Z,9.40
2022-08-07T11:05:19.047Z,9.23
2022-08-07T11:07:58.441Z,9.02
2022-08-07T11:10:35.279Z,8.52
2022-08-07T11:14:43.824Z,8.68
2022-08-07T11:16:10.290Z,8.23
2022-08-07T11:18:50.923Z,9.00
2022-08-07T11:21:40.762Z,8.82
2022-08-07T11:24:22.644Z,8.80
2022-08-07T11:28:01.536Z,7.67
2022-08-07T11:30:18.148Z,8.23
2022-08-07T11:33:15.019Z,8.18
2022-08-07T11:36:10.418Z,8.32
2022-08-07T11:38:58.187Z,8.55
2022-08-07T11:42:01.824Z,8.80
2022-08-07T11:44:37.254Z,8.57
2022-08-07T11:47:56.025Z,8.20
2022-08-07T11:50:57.837Z,8.93
2022-08-07T11:53:43.406Z,8.63
2022-08-07T11:56:32.572Z,9.15
2022-08-07T12:00:08.984Z,8.32
2022-08-07T12:02:52.656Z,8.32
2022-08-07T12:06:00.363Z,8.15
2022-08-07T12:08:56.143Z,8.73
2022-08-07T12:11:32.566Z,8.00
2022-08-07T12:14:20.729Z,8.43
2022-08-07T12:16:52.083Z,7.82
2022-08-07T12:22:39.493Z,7.93
2022-08-07T12:26:05.529Z,7.75
2022-08-07T12:28:57.480Z,7.88
2022-08-07T12:32:01.755Z,7.88
2022-08-07T12:34:28.166Z,8.05
2022-08-07T12:36:54.831Z,8.07
2022-08-07T12:39:43.853Z,7.75
2022-08-07T12:42:10.416Z,8.13
2022-08-07T12:44:42.993Z,7.55
2022-08-07T12:47:37.415Z,7.88
2022-08-07T12:50:34.027Z,8.57
2022-08-07T12:54:23.947Z,7.38
2022-08-07T12:56:51.021Z,8.20
2022-08-07T12:59:25.379Z,9.27
2022-08-07T13:02:11.882Z,9.90
2022-08-07T13:05:01.753Z,8.98
2022-08-07T13:08:13.560Z,9.98
2022-08-07T13:10:51.695Z,9.00
2022-08-07T13:13:50.223Z,9.13
2022-08-07T13:16:41.072Z,9.77
2022-08-07T13:19:46.211Z,10.20
2022-08-07T13:22:52.668Z,9.73
2022-08-07T13:25:29.951Z,10.45
2022-08-07T13:28:11.434Z,11.43
2022-08-07T13:30:48.690Z,10.93
2022-08-07T13:34:32.138Z,10.98
2022-08-07T13:36:30.837Z,10.85
2022-08-07T13:39:12.662Z,10.13
2022-08-07T13:41:50.725Z,11.02
2022-08-07T13:44:27.592Z,11.32
2022-08-07T13:47:01.395Z,11.17
2022-08-07T13:50:34.240Z,10.40
2022-08-07T13:52:32.444Z,10.38
2022-08-07T13:55:19.353Z,10.57
2022-08-07T13:58:02.331Z,9.80
2022-08-07T14:00:50.609Z,10.27
2022-08-07T14:03:30.073Z,10.65
2022-08-07T14:06:12.031Z,9.68
2022-08-07T14:08:46.113Z,10.40
2022-08-07T14:11:22.075Z,9.63
2022-08-07T14:13:56.038Z,9.63
2022-08-07T14:16:31.612Z,9.30
2022-08-07T14:18:58.236Z,9.65
2022-08-07T14:22:01.831Z,10.35
2022-08-07T14:24:19.851Z,10.23
2022-08-07T14:26:55.821Z,9.60
2022-08-07T14:32:45.678Z,10.38
2022-08-07T14:35:43.373Z,9.68
2022-08-07T14:38:26.588Z,8.75
2022-08-07T14:41:02.111Z,9.13
2022-08-07T14:43:58.188Z,9.00
2022-08-07T14:46:18.812Z,8.70
2022-08-07T14:48:57.631Z,9.13
2022-08-07T14:52:03.730Z,9.23
2022-08-07T14:54:32.866Z,8.23
2022-08-07T14:57:04.279Z,9.85
2022-08-07T15:00:03.625Z,8.55
2022-08-07T15:05:20.509Z,11.68
2022-08-07T15:07:51.849Z,8.98
2022-08-07T15:10:40.184Z,9.43
2022-08-07T15:13:25.743Z,9.80
2022-08-07T15:16:11.052Z,13.02
2022-08-07T15:18:43.668Z,9.18
2022-08-07T15:21:44.408Z,10.05
2022-08-07T15:25:15.651Z,9.75
2022-08-07T15:26:57.181Z,8.88
2022-08-07T15:30:08.905Z,9.38
2022-08-07T15:32:12.546Z,9.48
2022-08-07T15:34:50.619Z,8.60
2022-08-07T15:38:17.566Z,9.48
2022-08-07T15:40:33.949Z,10.38
2022-08-07T15:43:10.656Z,11.57
2022-08-07T15:46:01.584Z,9.88
2022-08-07T15:48:35.202Z,9.57
2022-08-07T15:51:08.405Z,8.93
2022-08-07T15:53:52.646Z,9.63
2022-08-07T15:56:24.730Z,8.63
2022-08-07T15:58:58.808Z,9.18
2022-08-07T16:01:38.997Z,9.02
2022-08-07T16:06:54.963Z,10.02
2022-08-07T16:09:51.738Z,9.68
2022-08-07T16:12:29.769Z,9.38
2022-08-07T16:15:55.119Z,10.85
2022-08-07T16:18:49.824Z,9.98
2022-08-07T16:22:02.170Z,10.45
2022-08-07T16:25:10.705Z,10.70
2022-08-07T16:27:58.884Z,9.95
2022-08-07T16:30:31.703Z,9.82
2022-08-07T16:34:01.722Z,9.75
2022-08-07T16:35:52.675Z,10.02
2022-08-07T16:39:01.369Z,9.75
2022-08-07T16:41:54.080Z,9.70
2022-08-07T16:44:40.192Z,9.93
2022-08-07T16:47:51.191Z,9.20
2022-08-07T16:51:21.011Z,9.32
2022-08-07T16:54:11.472Z,9.43
2022-08-07T16:56:55.214Z,10.07
2022-08-07T17:00:01.433Z,9.15
2022-08-07T17:03:06.296Z,9.18
2022-08-07T17:06:28.651Z,9.82
2022-08-07T17:09:09.484Z,9.75
2022-08-07T17:12:05.053Z,9.85
2022-08-07T17:14:34.096Z,9.77
2022-08-07T17:17:02.332Z,10.32
2022-08-07T17:20:01.852Z,10.15
2022-08-07T17:22:37.753Z,10.57
2022-08-07T17:25:10.803Z,10.45
2022-08-07T17:27:58.282Z,9.55
2022-08-07T17:30:27.707Z,8.38
2022-08-07T17:34:10.081Z,7.88
2022-08-07T17:36:03.206Z,8.38
2022-08-07T17:38:51.175Z,7.50
2022-08-07T17:42:02.860Z,7.28
2022-08-07T17:44:50.253Z,11.65
2022-08-07T17:47:43.399Z,8.93
2022-08-07T17:50:22.872Z,10.65
2022-08-07T17:52:59.149Z,9.38
2022-08-07T17:56:01.093Z,10.43
2022-08-07T17:58:50.209Z,9.27
2022-08-07T18:01:22.579Z,10.20
2022-08-07T18:04:16.458Z,10.77
2022-08-07T18:06:58.009Z,10.52
2022-08-07T18:10:05.236Z,10.40
2022-08-07T18:12:31.770Z,12.60
2022-08-07T18:15:32.878Z,13.20
2022-08-07T18:18:44.806Z,10.93
2022-08-07T18:21:27.031Z,10.57
2022-08-07T18:24:33.000Z,11.57
2022-08-07T18:27:38.286Z,10.98
2022-08-07T18:30:31.920Z,10.68
2022-08-07T18:33:10.972Z,9.95
2022-08-07T18:36:12.654Z,10.55
2022-08-07T18:38:56.988Z,9.68
2022-08-07T18:41:45.107Z,11.15
2022-08-07T18:44:15.542Z,9.82
2022-08-07T18:47:01.751Z,11.25
2022-08-07T18:50:38.460Z,10.57
2022-08-07T18:53:12.697Z,10.82
2022-08-07T18:55:59.095Z,11.30
2022-08-07T18:58:35.347Z,10.88
2022-08-07T19:01:05.654Z,10.32
2022-08-07T19:03:53.238Z,9.63
2022-08-07T19:06:48.372Z,10.98
2022-08-07T19:09:55.329Z,10.25
2022-08-07T19:12:49.184Z,10.20
2022-08-07T19:16:02.875Z,11.33
2022-08-07T19:18:34.816Z,10.98
2022-08-07T19:21:47.640Z,12.15
2022-08-07T19:24:03.878Z,11.10
2022-08-07T19:27:09.229Z,12.40
2022-08-07T19:30:55.493Z,14.75
2022-08-07T19:32:18.502Z,13.20
2022-08-07T19:35:03.470Z,11.20
2022-08-07T19:37:55.334Z,10.95
2022-08-07T19:40:16.976Z,11.10
2022-08-07T19:42:58.575Z,10.32
2022-08-07T19:46:09.724Z,10.15
2022-08-07T19:48:19.014Z,11.82
2022-08-07T19:50:53.540Z,10.77
2022-08-07T19:54:34.782Z,11.63
2022-08-07T19:56:15.092Z,11.50
2022-08-07T19:58:56.921Z,12.93
2022-08-07T20:01:24.362Z,14.70
2022-08-07T20:04:11.317Z,11.55
2022-08-07T20:06:57.609Z,11.10
2022-08-07T20:10:37.289Z,10.68
2022-08-07T20:12:31.439Z,10.20
2022-08-07T20:15:03.595Z,12.25
2022-08-07T20:17:31.063Z,10.38
2022-08-07T20:19:59.064Z,9.68
2022-08-07T20:22:29.114Z,10.43
2022-08-07T20:25:06.267Z,10.70
2022-08-07T20:27:47.560Z,10.57
2022-08-07T20:30:22.447Z,10.70
2022-08-07T20:32:49.316Z,10.15
2022-08-07T20:35:26.211Z,10.77
2022-08-07T20:37:57.796Z,10.15
2022-08-07T20:40:32.952Z,9.80
2022-08-07T20:43:00.836Z,10.07
2022-08-07T20:46:23.988Z,10.23
2022-08-07T20:48:25.930Z,11.13
2022-08-07T20:50:58.911Z,10.05
2022-08-07T20:54:03.779Z,10.27
2022-08-07T20:56:12.559Z,9.60
2022-08-07T20:58:43.481Z,10.40
2022-08-07T21:01:19.935Z,11.13
2022-08-07T21:04:18.769Z,10.57
2022-08-07T21:06:35.707Z,10.57
2022-08-07T21:09:13.627Z,9.98
2022-08-07T21:11:50.041Z,10.77
2022-08-07T21:14:33.855Z,10.75
2022-08-07T21:18:00.504Z,10.75
2022-08-07T21:19:51.647Z,9.65
2022-08-07T21:22:28.581Z,11.45
2022-08-07T21:25:12.225Z,10.95
2022-08-07T21:27:53.750Z,11.02
2022-08-07T21:32:53.872Z,12.53
2022-08-07T21:36:05.887Z,13.15
2022-08-07T21:38:39.447Z,12.48
2022-08-07T21:41:22.538Z,16.00
2022-08-07T21:44:14.550Z,15.83
2022-08-07T21:47:12.407Z,15.25
2022-08-07T21:50:02.745Z,13.27
2022-08-07T21:52:54.357Z,13.93
2022-08-07T21:58:18.399Z,13.32
2022-08-07T22:01:13.679Z,14.43
2022-08-07T22:03:47.794Z,14.75
2022-08-07T22:06:30.854Z,14.02
2022-08-07T22:09:07.216Z,14.32
2022-08-07T22:11:53.371Z,15.65
2022-08-07T22:14:34.508Z,15.05
2022-08-07T22:17:04.035Z,14.70
2022-08-07T22:20:00.737Z,15.60
2022-08-07T22:22:34.145Z,15.35
2022-08-07T22:25:16.022Z,14.40
2022-08-07T22:28:20.114Z,14.63
2022-08-07T22:30:53.015Z,13.85
2022-08-07T22:33:52.795Z,13.75
2022-08-07T22:36:22.625Z,14.55
2022-08-07T22:38:52.714Z,15.63
2022-08-07T22:41:29.128Z,14.40
2022-08-07T22:44:12.925Z,13.50
2022-08-07T22:47:23.151Z,14.88
2022-08-07T22:50:20.824Z,19.73
2022-08-07T22:53:16.643Z,16.80
2022-08-07T22:56:01.805Z,16.85
2022-08-07T22:59:04.936Z,12.75
2022-08-07T23:04:29.919Z,13.63
2022-08-07T23:07:40.448Z,14.02
2022-08-07T23:10:04.562Z,14.52
2022-08-07T23:13:14.703Z,14.23
2022-08-07T23:16:48.281Z,14.20
2022-08-07T23:19:51.950Z,13.73
2022-08-07T23:22:30.138Z,14.77
2022-08-07T23:25:08.124Z,15.07
2022-08-07T23:28:20.628Z,13.57
2022-08-07T23:31:13.831Z,13.60
2022-08-07T23:34:36.480Z,13.95
2022-08-07T23:37:19.313Z,13.98
2022-08-07T23:39:57.934Z,13.55
2022-08-07T23:42:46.176Z,14.15
2022-08-07T23:46:01.825Z,13.07
2022-08-07T23:48:12.121Z,13.55
2022-08-07T23:50:47.387Z,13.95
2022-08-07T23:53:56.230Z,14.40
2022-08-07T23:56:40.391Z,13.70
